sensor_id;sensor_type;location;lat;lon;timestamp;temperature;humidity
4687;DHT22;2357;47.316;-1.348;2023-06-04T00:00:40;21.60;99.90
4687;DHT22;2357;47.316;-1.348;2023-06-04T00:03:06;21.50;99.90
4687;DHT22;2357;47.316;-1.348;2023-06-04T00:05:32;21.50;99.90
4687;DHT22;2357;47.316;-1.348;2023-06-04T00:07:57;21.40;99.90
4687;DHT22;2357;47.316;-1.348;2023-06-04T00:10:23;21.40;99.90
4687;DHT22;2357;47.316;-1.348;2023-06-04T00:12:48;21.30;99.90
4687;DHT22;2357;47.316;-1.348;2023-06-04T00:15:14;21.30;99.90
4687;DHT22;2357;47.316;-1.348;2023-06-04T00:17:42;21.20;99.90
4687;DHT22;2357;47.316;-1.348;2023-06-04T00:20:08;21.20;99.90
4687;DHT22;2357;47.316;-1.348;2023-06-04T00:22:34;21.10;99.90
4687;DHT22;2357;47.316;-1.348;2023-06-04T00:24:59;21.10;99.90
4687;DHT22;2357;47.316;-1.348;2023-06-04T00:27:25;21.00;99.90
4687;DHT22;2357;47.316;-1.348;2023-06-04T00:29:50;20.90;99.90
4687;DHT22;2357;47.316;-1.348;2023-06-04T00:32:16;20.80;99.90
4687;DHT22;2357;47.316;-1.348;2023-06-04T00:34:42;20.80;99.90
4687;DHT22;2357;47.316;-1.348;2023-06-04T00:37:08;20.70;99.90
4687;DHT22;2357;47.316;-1.348;2023-06-04T00:39:33;20.70;99.90
4687;DHT22;2357;47.316;-1.348;2023-06-04T00:42:00;20.70;99.90
4687;DHT22;2357;47.316;-1.348;2023-06-04T00:44:26;20.50;99.90
4687;DHT22;2357;47.316;-1.348;2023-06-04T00:46:52;20.40;99.90
4687;DHT22;2357;47.316;-1.348;2023-06-04T00:49:19;20.40;99.90
4687;DHT22;2357;47.316;-1.348;2023-06-04T00:51:45;20.50;99.90
4687;DHT22;2357;47.316;-1.348;2023-06-04T00:54:12;20.30;99.90
4687;DHT22;2357;47.316;-1.348;2023-06-04T00:56:38;20.40;99.90
4687;DHT22;2357;47.316;-1.348;2023-06-04T00:59:08;20.30;99.90
4687;DHT22;2357;47.316;-1.348;2023-06-04T01:01:56;20.40;99.90
4687;DHT22;2357;47.316;-1.348;2023-06-04T01:04:37;20.40;99.90
4687;DHT22;2357;47.316;-1.348;2023-06-04T01:07:09;20.50;99.90
4687;DHT22;2357;47.316;-1.348;2023-06-04T01:09:36;20.40;99.90
4687;DHT22;2357;47.316;-1.348;2023-06-04T01:12:06;20.30;99.90
4687;DHT22;2357;47.316;-1.348;2023-06-04T01:14:32;20.20;99.90
4687;DHT22;2357;47.316;-1.348;2023-06-04T01:17:07;20.20;99.90
4687;DHT22;2357;47.316;-1.348;2023-06-04T01:27:50;20.10;99.90
4687;DHT22;2357;47.316;-1.348;2023-06-04T01:30:23;20.10;99.90
4687;DHT22;2357;47.316;-1.348;2023-06-04T01:32:49;20.00;99.90
4687;DHT22;2357;47.316;-1.348;2023-06-04T01:35:15;19.90;99.90
4687;DHT22;2357;47.316;-1.348;2023-06-04T01:37:40;19.90;99.90
4687;DHT22;2357;47.316;-1.348;2023-06-04T01:40:06;19.80;99.90
4687;DHT22;2357;47.316;-1.348;2023-06-04T01:42:33;20.00;99.90
4687;DHT22;2357;47.316;-1.348;2023-06-04T01:44:59;19.80;99.90
4687;DHT22;2357;47.316;-1.348;2023-06-04T01:47:25;19.70;99.90
4687;DHT22;2357;47.316;-1.348;2023-06-04T01:49:50;19.60;99.90
4687;DHT22;2357;47.316;-1.348;2023-06-04T01:52:16;19.70;99.90
4687;DHT22;2357;47.316;-1.348;2023-06-04T01:54:42;19.60;99.90
4687;DHT22;2357;47.316;-1.348;2023-06-04T01:57:08;19.60;99.90
4687;DHT22;2357;47.316;-1.348;2023-06-04T01:59:35;19.60;99.90
4687;DHT22;2357;47.316;-1.348;2023-06-04T02:02:02;19.50;99.90
4687;DHT22;2357;47.316;-1.348;2023-06-04T02:04:28;19.50;99.90
4687;DHT22;2357;47.316;-1.348;2023-06-04T02:06:53;19.50;99.90
4687;DHT22;2357;47.316;-1.348;2023-06-04T02:09:19;19.40;99.90
4687;DHT22;2357;47.316;-1.348;2023-06-04T02:11:45;19.50;99.90
4687;DHT22;2357;47.316;-1.348;2023-06-04T02:14:10;19.50;99.90
4687;DHT22;2357;47.316;-1.348;2023-06-04T02:16:36;19.50;99.90
4687;DHT22;2357;47.316;-1.348;2023-06-04T02:19:03;19.50;99.90
4687;DHT22;2357;47.316;-1.348;2023-06-04T02:21:28;19.40;99.90
4687;DHT22;2357;47.316;-1.348;2023-06-04T02:23:54;19.40;99.90
4687;DHT22;2357;47.316;-1.348;2023-06-04T02:26:19;19.50;99.90
4687;DHT22;2357;47.316;-1.348;2023-06-04T02:28:45;19.30;99.90
4687;DHT22;2357;47.316;-1.348;2023-06-04T02:31:11;19.20;99.90
4687;DHT22;2357;47.316;-1.348;2023-06-04T02:33:37;19.30;99.90
4687;DHT22;2357;47.316;-1.348;2023-06-04T02:36:03;19.30;99.90
4687;DHT22;2357;47.316;-1.348;2023-06-04T02:38:29;19.30;99.90
4687;DHT22;2357;47.316;-1.348;2023-06-04T02:40:54;19.30;99.90
4687;DHT22;2357;47.316;-1.348;2023-06-04T02:43:20;19.30;99.90
4687;DHT22;2357;47.316;-1.348;2023-06-04T02:45:46;19.20;99.90
4687;DHT22;2357;47.316;-1.348;2023-06-04T02:48:11;19.10;99.90
4687;DHT22;2357;47.316;-1.348;2023-06-04T02:50:37;19.10;99.90
4687;DHT22;2357;47.316;-1.348;2023-06-04T02:53:03;19.10;99.90
4687;DHT22;2357;47.316;-1.348;2023-06-04T02:55:28;19.10;99.90
4687;DHT22;2357;47.316;-1.348;2023-06-04T02:57:54;19.00;99.90
4687;DHT22;2357;47.316;-1.348;2023-06-04T03:00:19;19.00;99.90
4687;DHT22;2357;47.316;-1.348;2023-06-04T03:02:46;18.90;99.90
4687;DHT22;2357;47.316;-1.348;2023-06-04T03:05:13;18.90;99.90
4687;DHT22;2357;47.316;-1.348;2023-06-04T03:07:41;18.90;99.90
4687;DHT22;2357;47.316;-1.348;2023-06-04T03:10:12;18.90;99.90
4687;DHT22;2357;47.316;-1.348;2023-06-04T03:12:38;18.80;99.90
4687;DHT22;2357;47.316;-1.348;2023-06-04T03:15:04;18.80;99.90
4687;DHT22;2357;47.316;-1.348;2023-06-04T03:17:30;18.80;99.90
4687;DHT22;2357;47.316;-1.348;2023-06-04T03:19:57;18.70;99.90
4687;DHT22;2357;47.316;-1.348;2023-06-04T03:22:22;18.70;99.90
4687;DHT22;2357;47.316;-1.348;2023-06-04T03:24:48;18.70;99.90
4687;DHT22;2357;47.316;-1.348;2023-06-04T03:27:14;18.60;99.90
4687;DHT22;2357;47.316;-1.348;2023-06-04T03:29:40;18.60;99.90
4687;DHT22;2357;47.316;-1.348;2023-06-04T03:32:06;18.50;99.90
4687;DHT22;2357;47.316;-1.348;2023-06-04T03:34:32;18.50;99.90
4687;DHT22;2357;47.316;-1.348;2023-06-04T03:36:58;18.50;99.90
4687;DHT22;2357;47.316;-1.348;2023-06-04T03:39:25;18.50;99.90
4687;DHT22;2357;47.316;-1.348;2023-06-04T03:41:51;18.50;99.90
4687;DHT22;2357;47.316;-1.348;2023-06-04T03:44:17;18.50;99.90
4687;DHT22;2357;47.316;-1.348;2023-06-04T03:46:43;18.40;99.90
4687;DHT22;2357;47.316;-1.348;2023-06-04T03:49:10;18.40;99.90
4687;DHT22;2357;47.316;-1.348;2023-06-04T03:51:37;18.30;99.90
4687;DHT22;2357;47.316;-1.348;2023-06-04T03:54:02;18.30;99.90
4687;DHT22;2357;47.316;-1.348;2023-06-04T03:56:28;18.30;99.90
4687;DHT22;2357;47.316;-1.348;2023-06-04T03:58:54;18.30;99.90
4687;DHT22;2357;47.316;-1.348;2023-06-04T04:01:21;18.10;99.90
4687;DHT22;2357;47.316;-1.348;2023-06-04T04:03:46;18.10;99.90
4687;DHT22;2357;47.316;-1.348;2023-06-04T04:06:16;18.00;99.90
4687;DHT22;2357;47.316;-1.348;2023-06-04T04:08:42;18.00;99.90
4687;DHT22;2357;47.316;-1.348;2023-06-04T04:11:12;18.00;99.90
4687;DHT22;2357;47.316;-1.348;2023-06-04T04:13:38;17.90;99.90
4687;DHT22;2357;47.316;-1.348;2023-06-04T04:16:04;17.90;99.90
4687;DHT22;2357;47.316;-1.348;2023-06-04T04:18:33;17.90;99.90
4687;DHT22;2357;47.316;-1.348;2023-06-04T04:20:59;17.90;99.90
4687;DHT22;2357;47.316;-1.348;2023-06-04T04:23:25;17.90;99.90
4687;DHT22;2357;47.316;-1.348;2023-06-04T04:25:52;18.00;99.90
4687;DHT22;2357;47.316;-1.348;2023-06-04T04:28:19;17.90;99.90
4687;DHT22;2357;47.316;-1.348;2023-06-04T04:30:45;17.90;99.90
4687;DHT22;2357;47.316;-1.348;2023-06-04T04:33:12;17.90;99.90
4687;DHT22;2357;47.316;-1.348;2023-06-04T04:35:41;17.90;99.90
4687;DHT22;2357;47.316;-1.348;2023-06-04T04:38:10;17.80;99.90
4687;DHT22;2357;47.316;-1.348;2023-06-04T04:40:36;17.80;99.90
4687;DHT22;2357;47.316;-1.348;2023-06-04T04:43:02;17.80;99.90
4687;DHT22;2357;47.316;-1.348;2023-06-04T04:45:29;17.70;99.90
4687;DHT22;2357;47.316;-1.348;2023-06-04T04:47:54;17.80;99.90
4687;DHT22;2357;47.316;-1.348;2023-06-04T04:50:20;17.70;99.90
4687;DHT22;2357;47.316;-1.348;2023-06-04T04:52:46;17.70;99.90
4687;DHT22;2357;47.316;-1.348;2023-06-04T04:55:11;17.80;99.90
4687;DHT22;2357;47.316;-1.348;2023-06-04T04:57:38;17.80;99.90
4687;DHT22;2357;47.316;-1.348;2023-06-04T05:00:04;17.80;99.90
4687;DHT22;2357;47.316;-1.348;2023-06-04T05:02:37;17.70;99.90
4687;DHT22;2357;47.316;-1.348;2023-06-04T05:05:03;17.70;99.90
4687;DHT22;2357;47.316;-1.348;2023-06-04T05:07:29;17.70;99.90
4687;DHT22;2357;47.316;-1.348;2023-06-04T05:09:55;17.70;99.90
4687;DHT22;2357;47.316;-1.348;2023-06-04T05:12:21;17.80;99.90
4687;DHT22;2357;47.316;-1.348;2023-06-04T05:14:46;17.80;99.90
4687;DHT22;2357;47.316;-1.348;2023-06-04T05:17:12;17.80;99.90
4687;DHT22;2357;47.316;-1.348;2023-06-04T05:19:38;17.80;99.90
4687;DHT22;2357;47.316;-1.348;2023-06-04T05:22:04;17.80;99.90
4687;DHT22;2357;47.316;-1.348;2023-06-04T05:24:31;17.80;99.90
4687;DHT22;2357;47.316;-1.348;2023-06-04T05:26:58;17.80;99.90
4687;DHT22;2357;47.316;-1.348;2023-06-04T05:29:23;17.90;99.90
4687;DHT22;2357;47.316;-1.348;2023-06-04T05:31:49;17.80;99.90
4687;DHT22;2357;47.316;-1.348;2023-06-04T05:34:15;17.90;99.90
4687;DHT22;2357;47.316;-1.348;2023-06-04T05:36:41;17.80;99.90
4687;DHT22;2357;47.316;-1.348;2023-06-04T05:39:07;17.90;99.90
4687;DHT22;2357;47.316;-1.348;2023-06-04T05:41:32;17.80;99.90
4687;DHT22;2357;47.316;-1.348;2023-06-04T05:43:58;17.80;99.90
4687;DHT22;2357;47.316;-1.348;2023-06-04T05:46:23;17.80;99.90
4687;DHT22;2357;47.316;-1.348;2023-06-04T05:48:49;17.80;99.90
4687;DHT22;2357;47.316;-1.348;2023-06-04T05:51:16;17.80;99.90
4687;DHT22;2357;47.316;-1.348;2023-06-04T05:53:42;17.90;99.90
4687;DHT22;2357;47.316;-1.348;2023-06-04T05:56:07;17.90;99.90
4687;DHT22;2357;47.316;-1.348;2023-06-04T05:58:33;17.90;99.90
4687;DHT22;2357;47.316;-1.348;2023-06-04T06:00:59;17.90;99.90
4687;DHT22;2357;47.316;-1.348;2023-06-04T06:03:25;17.90;99.90
4687;DHT22;2357;47.316;-1.348;2023-06-04T06:05:53;18.00;99.90
4687;DHT22;2357;47.316;-1.348;2023-06-04T06:08:20;18.00;99.90
4687;DHT22;2357;47.316;-1.348;2023-06-04T06:10:46;18.00;99.90
4687;DHT22;2357;47.316;-1.348;2023-06-04T06:13:12;18.00;99.90
4687;DHT22;2357;47.316;-1.348;2023-06-04T06:15:38;18.00;99.90
4687;DHT22;2357;47.316;-1.348;2023-06-04T06:18:04;18.00;99.90
4687;DHT22;2357;47.316;-1.348;2023-06-04T06:20:30;18.00;99.90
4687;DHT22;2357;47.316;-1.348;2023-06-04T06:22:55;18.00;99.90
4687;DHT22;2357;47.316;-1.348;2023-06-04T06:25:21;18.10;99.90
4687;DHT22;2357;47.316;-1.348;2023-06-04T06:27:47;18.20;99.90
4687;DHT22;2357;47.316;-1.348;2023-06-04T06:30:14;18.10;99.90
4687;DHT22;2357;47.316;-1.348;2023-06-04T06:32:40;18.20;99.90
4687;DHT22;2357;47.316;-1.348;2023-06-04T06:35:06;18.20;99.90
4687;DHT22;2357;47.316;-1.348;2023-06-04T06:37:33;18.20;99.90
4687;DHT22;2357;47.316;-1.348;2023-06-04T06:39:58;18.20;99.90
4687;DHT22;2357;47.316;-1.348;2023-06-04T06:42:24;18.30;99.90
4687;DHT22;2357;47.316;-1.348;2023-06-04T06:44:50;18.40;99.90
4687;DHT22;2357;47.316;-1.348;2023-06-04T06:47:16;18.50;99.90
4687;DHT22;2357;47.316;-1.348;2023-06-04T06:49:42;18.50;99.90
4687;DHT22;2357;47.316;-1.348;2023-06-04T06:52:07;18.50;99.90
4687;DHT22;2357;47.316;-1.348;2023-06-04T06:54:33;18.50;99.90
4687;DHT22;2357;47.316;-1.348;2023-06-04T06:56:59;18.60;99.90
4687;DHT22;2357;47.316;-1.348;2023-06-04T06:59:24;18.70;99.90
4687;DHT22;2357;47.316;-1.348;2023-06-04T07:01:50;18.70;99.90
4687;DHT22;2357;47.316;-1.348;2023-06-04T07:04:16;18.70;99.90
4687;DHT22;2357;47.316;-1.348;2023-06-04T07:06:43;18.70;99.90
4687;DHT22;2357;47.316;-1.348;2023-06-04T07:09:08;18.80;99.90
4687;DHT22;2357;47.316;-1.348;2023-06-04T07:11:34;18.90;99.90
4687;DHT22;2357;47.316;-1.348;2023-06-04T07:14:00;18.90;99.90
4687;DHT22;2357;47.316;-1.348;2023-06-04T07:16:28;18.90;99.90
4687;DHT22;2357;47.316;-1.348;2023-06-04T07:18:54;18.90;99.90
4687;DHT22;2357;47.316;-1.348;2023-06-04T07:21:19;18.90;99.90
4687;DHT22;2357;47.316;-1.348;2023-06-04T07:23:47;19.00;99.90
4687;DHT22;2357;47.316;-1.348;2023-06-04T07:26:15;19.10;99.90
4687;DHT22;2357;47.316;-1.348;2023-06-04T07:28:41;19.10;99.90
4687;DHT22;2357;47.316;-1.348;2023-06-04T07:31:07;19.30;99.90
4687;DHT22;2357;47.316;-1.348;2023-06-04T07:33:33;19.20;99.90
4687;DHT22;2357;47.316;-1.348;2023-06-04T07:35:59;19.20;99.90
4687;DHT22;2357;47.316;-1.348;2023-06-04T07:38:26;19.30;99.90
4687;DHT22;2357;47.316;-1.348;2023-06-04T07:40:52;19.30;99.90
4687;DHT22;2357;47.316;-1.348;2023-06-04T07:43:17;19.40;99.90
4687;DHT22;2357;47.316;-1.348;2023-06-04T07:45:43;19.50;99.90
4687;DHT22;2357;47.316;-1.348;2023-06-04T07:48:09;19.50;99.90
4687;DHT22;2357;47.316;-1.348;2023-06-04T07:50:36;19.50;99.90
4687;DHT22;2357;47.316;-1.348;2023-06-04T07:53:02;19.60;99.90
4687;DHT22;2357;47.316;-1.348;2023-06-04T07:55:27;19.70;99.90
4687;DHT22;2357;47.316;-1.348;2023-06-04T07:57:53;19.70;99.90
4687;DHT22;2357;47.316;-1.348;2023-06-04T08:00:18;19.80;99.90
4687;DHT22;2357;47.316;-1.348;2023-06-04T08:02:45;19.90;99.90
4687;DHT22;2357;47.316;-1.348;2023-06-04T08:05:10;19.90;99.90
4687;DHT22;2357;47.316;-1.348;2023-06-04T08:07:39;20.00;99.90
4687;DHT22;2357;47.316;-1.348;2023-06-04T08:10:06;20.10;99.90
4687;DHT22;2357;47.316;-1.348;2023-06-04T08:12:32;20.20;99.90
4687;DHT22;2357;47.316;-1.348;2023-06-04T08:14:57;20.30;99.90
4687;DHT22;2357;47.316;-1.348;2023-06-04T08:17:23;20.40;99.90
4687;DHT22;2357;47.316;-1.348;2023-06-04T08:19:49;20.50;99.90
4687;DHT22;2357;47.316;-1.348;2023-06-04T08:22:15;20.60;99.90
4687;DHT22;2357;47.316;-1.348;2023-06-04T08:24:41;20.70;99.90
4687;DHT22;2357;47.316;-1.348;2023-06-04T08:27:06;20.80;99.90
4687;DHT22;2357;47.316;-1.348;2023-06-04T08:29:34;20.90;99.90
4687;DHT22;2357;47.316;-1.348;2023-06-04T08:32:01;21.00;99.90
4687;DHT22;2357;47.316;-1.348;2023-06-04T08:34:26;21.10;99.90
4687;DHT22;2357;47.316;-1.348;2023-06-04T08:36:52;21.20;99.90
4687;DHT22;2357;47.316;-1.348;2023-06-04T08:39:18;21.30;99.90
4687;DHT22;2357;47.316;-1.348;2023-06-04T08:41:52;21.30;99.90
4687;DHT22;2357;47.316;-1.348;2023-06-04T08:44:19;21.30;99.90
4687;DHT22;2357;47.316;-1.348;2023-06-04T08:46:50;21.40;99.90
4687;DHT22;2357;47.316;-1.348;2023-06-04T08:49:18;21.50;99.90
4687;DHT22;2357;47.316;-1.348;2023-06-04T08:51:46;21.60;99.90
4687;DHT22;2357;47.316;-1.348;2023-06-04T08:54:12;21.70;99.90
4687;DHT22;2357;47.316;-1.348;2023-06-04T08:56:38;21.80;99.90
4687;DHT22;2357;47.316;-1.348;2023-06-04T08:59:05;21.90;99.90
4687;DHT22;2357;47.316;-1.348;2023-06-04T09:01:33;22.00;99.90
4687;DHT22;2357;47.316;-1.348;2023-06-04T09:04:01;22.10;99.90
4687;DHT22;2357;47.316;-1.348;2023-06-04T09:06:29;22.20;99.90
4687;DHT22;2357;47.316;-1.348;2023-06-04T09:08:56;22.40;99.90
4687;DHT22;2357;47.316;-1.348;2023-06-04T09:11:26;22.40;99.90
4687;DHT22;2357;47.316;-1.348;2023-06-04T09:13:53;22.50;99.90
4687;DHT22;2357;47.316;-1.348;2023-06-04T09:16:18;22.60;99.90
4687;DHT22;2357;47.316;-1.348;2023-06-04T09:18:44;22.60;99.90
4687;DHT22;2357;47.316;-1.348;2023-06-04T09:21:11;22.60;99.90
4687;DHT22;2357;47.316;-1.348;2023-06-04T09:23:47;22.70;99.90
4687;DHT22;2357;47.316;-1.348;2023-06-04T09:26:13;22.80;99.90
4687;DHT22;2357;47.316;-1.348;2023-06-04T09:28:43;22.80;99.90
4687;DHT22;2357;47.316;-1.348;2023-06-04T09:31:09;22.80;99.90
4687;DHT22;2357;47.316;-1.348;2023-06-04T09:33:51;22.80;99.90
4687;DHT22;2357;47.316;-1.348;2023-06-04T09:36:17;23.00;99.90
4687;DHT22;2357;47.316;-1.348;2023-06-04T09:38:43;23.00;99.90
4687;DHT22;2357;47.316;-1.348;2023-06-04T09:41:16;23.20;99.90
4687;DHT22;2357;47.316;-1.348;2023-06-04T09:43:41;23.30;99.90
4687;DHT22;2357;47.316;-1.348;2023-06-04T09:46:13;23.30;99.90
4687;DHT22;2357;47.316;-1.348;2023-06-04T09:48:39;23.40;99.90
4687;DHT22;2357;47.316;-1.348;2023-06-04T09:51:14;23.50;99.90
4687;DHT22;2357;47.316;-1.348;2023-06-04T09:53:41;23.60;99.90
4687;DHT22;2357;47.316;-1.348;2023-06-04T09:56:07;23.70;99.90
4687;DHT22;2357;47.316;-1.348;2023-06-04T09:58:37;23.70;99.90
4687;DHT22;2357;47.316;-1.348;2023-06-04T10:01:05;23.80;99.90
4687;DHT22;2357;47.316;-1.348;2023-06-04T10:03:35;23.90;99.90
4687;DHT22;2357;47.316;-1.348;2023-06-04T10:06:03;24.10;99.90
4687;DHT22;2357;47.316;-1.348;2023-06-04T10:08:30;24.20;99.90
4687;DHT22;2357;47.316;-1.348;2023-06-04T10:11:00;24.30;99.90
4687;DHT22;2357;47.316;-1.348;2023-06-04T10:13:29;24.40;99.90
4687;DHT22;2357;47.316;-1.348;2023-06-04T10:15:58;24.50;99.90
4687;DHT22;2357;47.316;-1.348;2023-06-04T10:18:25;24.40;99.90
4687;DHT22;2357;47.316;-1.348;2023-06-04T10:20:56;24.50;99.90
4687;DHT22;2357;47.316;-1.348;2023-06-04T10:23:23;24.50;99.90
4687;DHT22;2357;47.316;-1.348;2023-06-04T10:25:49;24.70;99.90
4687;DHT22;2357;47.316;-1.348;2023-06-04T10:28:19;24.90;99.90
4687;DHT22;2357;47.316;-1.348;2023-06-04T10:30:48;24.90;99.90
4687;DHT22;2357;47.316;-1.348;2023-06-04T10:33:22;25.10;99.90
4687;DHT22;2357;47.316;-1.348;2023-06-04T10:35:50;25.20;99.90
4687;DHT22;2357;47.316;-1.348;2023-06-04T10:38:16;25.30;99.90
4687;DHT22;2357;47.316;-1.348;2023-06-04T10:40:44;25.30;99.90
4687;DHT22;2357;47.316;-1.348;2023-06-04T10:43:12;25.30;99.90
4687;DHT22;2357;47.316;-1.348;2023-06-04T10:45:39;25.40;99.90
4687;DHT22;2357;47.316;-1.348;2023-06-04T10:48:07;25.50;99.90
4687;DHT22;2357;47.316;-1.348;2023-06-04T10:50:34;25.50;99.90
4687;DHT22;2357;47.316;-1.348;2023-06-04T10:53:00;25.60;99.90
4687;DHT22;2357;47.316;-1.348;2023-06-04T10:55:31;25.60;99.90
4687;DHT22;2357;47.316;-1.348;2023-06-04T10:58:00;25.70;99.90
4687;DHT22;2357;47.316;-1.348;2023-06-04T11:00:43;25.80;99.90
4687;DHT22;2357;47.316;-1.348;2023-06-04T11:03:12;25.90;99.90
4687;DHT22;2357;47.316;-1.348;2023-06-04T11:05:44;26.10;99.90
4687;DHT22;2357;47.316;-1.348;2023-06-04T11:08:11;26.10;99.90
4687;DHT22;2357;47.316;-1.348;2023-06-04T11:10:41;26.20;99.90
4687;DHT22;2357;47.316;-1.348;2023-06-04T11:13:07;26.30;99.90
4687;DHT22;2357;47.316;-1.348;2023-06-04T11:18:08;26.40;99.90
4687;DHT22;2357;47.316;-1.348;2023-06-04T11:20:38;26.40;99.90
4687;DHT22;2357;47.316;-1.348;2023-06-04T11:23:04;26.50;99.90
4687;DHT22;2357;47.316;-1.348;2023-06-04T11:25:31;26.50;99.90
4687;DHT22;2357;47.316;-1.348;2023-06-04T11:27:58;26.70;99.90
4687;DHT22;2357;47.316;-1.348;2023-06-04T11:30:25;26.70;99.90
4687;DHT22;2357;47.316;-1.348;2023-06-04T11:33:03;26.80;99.90
4687;DHT22;2357;47.316;-1.348;2023-06-04T11:35:29;26.90;99.90
4687;DHT22;2357;47.316;-1.348;2023-06-04T11:37:56;27.10;99.90
4687;DHT22;2357;47.316;-1.348;2023-06-04T11:40:22;27.00;99.90
4687;DHT22;2357;47.316;-1.348;2023-06-04T11:42:49;27.10;99.90
4687;DHT22;2357;47.316;-1.348;2023-06-04T11:45:17;27.00;99.90
4687;DHT22;2357;47.316;-1.348;2023-06-04T11:48:01;27.10;99.90
4687;DHT22;2357;47.316;-1.348;2023-06-04T11:50:28;27.30;99.90
4687;DHT22;2357;47.316;-1.348;2023-06-04T11:52:54;27.50;99.90
4687;DHT22;2357;47.316;-1.348;2023-06-04T11:55:20;27.50;99.90
4687;DHT22;2357;47.316;-1.348;2023-06-04T11:57:47;27.60;99.90
4687;DHT22;2357;47.316;-1.348;2023-06-04T12:00:14;27.70;99.90
4687;DHT22;2357;47.316;-1.348;2023-06-04T12:02:49;27.80;99.90
4687;DHT22;2357;47.316;-1.348;2023-06-04T12:05:17;28.00;99.90
4687;DHT22;2357;47.316;-1.348;2023-06-04T12:07:47;28.10;99.90
4687;DHT22;2357;47.316;-1.348;2023-06-04T12:10:19;28.20;99.90
4687;DHT22;2357;47.316;-1.348;2023-06-04T12:12:45;28.30;99.90
4687;DHT22;2357;47.316;-1.348;2023-06-04T12:15:11;28.50;99.90
4687;DHT22;2357;47.316;-1.348;2023-06-04T12:17:48;28.40;99.90
4687;DHT22;2357;47.316;-1.348;2023-06-04T12:20:14;28.60;99.90
4687;DHT22;2357;47.316;-1.348;2023-06-04T12:22:46;28.60;99.90
4687;DHT22;2357;47.316;-1.348;2023-06-04T12:25:22;28.80;99.90
4687;DHT22;2357;47.316;-1.348;2023-06-04T12:27:48;28.80;99.90
4687;DHT22;2357;47.316;-1.348;2023-06-04T12:30:14;29.10;99.90
4687;DHT22;2357;47.316;-1.348;2023-06-04T12:32:41;29.00;99.90
4687;DHT22;2357;47.316;-1.348;2023-06-04T12:35:08;29.00;99.90
4687;DHT22;2357;47.316;-1.348;2023-06-04T12:37:33;29.10;99.90
4687;DHT22;2357;47.316;-1.348;2023-06-04T12:39:59;29.20;99.90
4687;DHT22;2357;47.316;-1.348;2023-06-04T12:42:25;29.30;99.90
4687;DHT22;2357;47.316;-1.348;2023-06-04T12:44:50;29.50;99.90
4687;DHT22;2357;47.316;-1.348;2023-06-04T12:47:16;29.60;99.90
4687;DHT22;2357;47.316;-1.348;2023-06-04T12:49:42;29.60;99.90
4687;DHT22;2357;47.316;-1.348;2023-06-04T12:52:08;29.70;99.90
4687;DHT22;2357;47.316;-1.348;2023-06-04T12:54:33;29.80;99.90
4687;DHT22;2357;47.316;-1.348;2023-06-04T12:57:00;29.90;99.90
4687;DHT22;2357;47.316;-1.348;2023-06-04T12:59:26;29.90;99.90
4687;DHT22;2357;47.316;-1.348;2023-06-04T13:01:55;30.10;99.90
4687;DHT22;2357;47.316;-1.348;2023-06-04T13:04:21;30.00;99.90
4687;DHT22;2357;47.316;-1.348;2023-06-04T13:06:49;30.30;99.90
4687;DHT22;2357;47.316;-1.348;2023-06-04T13:09:15;30.30;99.90
4687;DHT22;2357;47.316;-1.348;2023-06-04T13:11:42;30.20;99.90
4687;DHT22;2357;47.316;-1.348;2023-06-04T13:14:09;30.40;99.90
4687;DHT22;2357;47.316;-1.348;2023-06-04T13:16:35;30.40;99.90
4687;DHT22;2357;47.316;-1.348;2023-06-04T13:19:01;30.50;99.90
4687;DHT22;2357;47.316;-1.348;2023-06-04T13:21:27;30.70;99.90
4687;DHT22;2357;47.316;-1.348;2023-06-04T13:23:53;30.60;99.90
4687;DHT22;2357;47.316;-1.348;2023-06-04T13:26:19;30.80;99.90
4687;DHT22;2357;47.316;-1.348;2023-06-04T13:28:46;30.90;99.90
4687;DHT22;2357;47.316;-1.348;2023-06-04T13:31:11;30.80;99.90
4687;DHT22;2357;47.316;-1.348;2023-06-04T13:33:37;30.90;99.90
4687;DHT22;2357;47.316;-1.348;2023-06-04T13:36:03;31.00;99.90
4687;DHT22;2357;47.316;-1.348;2023-06-04T13:38:30;31.10;99.90
4687;DHT22;2357;47.316;-1.348;2023-06-04T13:40:56;31.20;99.90
4687;DHT22;2357;47.316;-1.348;2023-06-04T13:43:21;31.10;99.90
4687;DHT22;2357;47.316;-1.348;2023-06-04T13:45:47;31.00;99.90
4687;DHT22;2357;47.316;-1.348;2023-06-04T13:48:13;31.20;99.90
4687;DHT22;2357;47.316;-1.348;2023-06-04T13:50:38;31.40;99.90
4687;DHT22;2357;47.316;-1.348;2023-06-04T13:53:04;31.40;99.90
4687;DHT22;2357;47.316;-1.348;2023-06-04T13:55:30;31.60;99.90
4687;DHT22;2357;47.316;-1.348;2023-06-04T13:57:56;31.60;99.90
4687;DHT22;2357;47.316;-1.348;2023-06-04T14:00:21;31.70;99.90
4687;DHT22;2357;47.316;-1.348;2023-06-04T14:02:50;31.60;99.90
4687;DHT22;2357;47.316;-1.348;2023-06-04T14:05:16;31.70;99.90
4687;DHT22;2357;47.316;-1.348;2023-06-04T14:07:42;31.70;99.90
4687;DHT22;2357;47.316;-1.348;2023-06-04T14:10:10;31.30;99.90
4687;DHT22;2357;47.316;-1.348;2023-06-04T14:12:36;31.10;99.90
4687;DHT22;2357;47.316;-1.348;2023-06-04T14:15:02;30.50;99.90
4687;DHT22;2357;47.316;-1.348;2023-06-04T14:17:28;30.50;99.90
4687;DHT22;2357;47.316;-1.348;2023-06-04T14:19:53;30.70;99.90
4687;DHT22;2357;47.316;-1.348;2023-06-04T14:22:19;31.00;99.90
4687;DHT22;2357;47.316;-1.348;2023-06-04T14:24:45;31.10;99.90
4687;DHT22;2357;47.316;-1.348;2023-06-04T14:27:10;31.40;99.90
4687;DHT22;2357;47.316;-1.348;2023-06-04T14:29:36;31.70;99.90
4687;DHT22;2357;47.316;-1.348;2023-06-04T14:32:03;32.00;99.90
4687;DHT22;2357;47.316;-1.348;2023-06-04T14:34:29;32.10;99.90
4687;DHT22;2357;47.316;-1.348;2023-06-04T14:36:55;32.10;99.90
4687;DHT22;2357;47.316;-1.348;2023-06-04T14:39:25;32.10;99.90
4687;DHT22;2357;47.316;-1.348;2023-06-04T14:41:51;32.20;99.90
4687;DHT22;2357;47.316;-1.348;2023-06-04T14:44:17;32.10;99.90
4687;DHT22;2357;47.316;-1.348;2023-06-04T14:46:43;32.20;99.90
4687;DHT22;2357;47.316;-1.348;2023-06-04T14:49:09;32.30;99.90
4687;DHT22;2357;47.316;-1.348;2023-06-04T14:51:34;32.40;99.90
4687;DHT22;2357;47.316;-1.348;2023-06-04T14:54:00;32.50;99.90
4687;DHT22;2357;47.316;-1.348;2023-06-04T14:56:25;32.40;99.90
4687;DHT22;2357;47.316;-1.348;2023-06-04T14:58:52;32.40;99.90
4687;DHT22;2357;47.316;-1.348;2023-06-04T15:01:17;32.50;99.90
4687;DHT22;2357;47.316;-1.348;2023-06-04T15:03:43;32.50;99.90
4687;DHT22;2357;47.316;-1.348;2023-06-04T15:06:09;32.60;99.90
4687;DHT22;2357;47.316;-1.348;2023-06-04T15:08:34;32.70;99.90
4687;DHT22;2357;47.316;-1.348;2023-06-04T15:11:00;32.60;99.90
4687;DHT22;2357;47.316;-1.348;2023-06-04T15:13:26;31.90;99.90
4687;DHT22;2357;47.316;-1.348;2023-06-04T15:15:52;31.80;99.90
4687;DHT22;2357;47.316;-1.348;2023-06-04T15:18:17;32.40;99.90
4687;DHT22;2357;47.316;-1.348;2023-06-04T15:20:43;32.70;99.90
4687;DHT22;2357;47.316;-1.348;2023-06-04T15:23:08;32.50;99.90
4687;DHT22;2357;47.316;-1.348;2023-06-04T15:25:34;32.50;99.90
4687;DHT22;2357;47.316;-1.348;2023-06-04T15:28:00;32.50;99.90
4687;DHT22;2357;47.316;-1.348;2023-06-04T15:30:25;32.00;99.90
4687;DHT22;2357;47.316;-1.348;2023-06-04T15:32:51;31.30;99.90
4687;DHT22;2357;47.316;-1.348;2023-06-04T15:35:17;31.30;99.90
4687;DHT22;2357;47.316;-1.348;2023-06-04T15:37:43;31.70;99.90
4687;DHT22;2357;47.316;-1.348;2023-06-04T15:40:09;32.10;99.90
4687;DHT22;2357;47.316;-1.348;2023-06-04T15:42:36;32.10;99.90
4687;DHT22;2357;47.316;-1.348;2023-06-04T15:45:02;31.60;99.90
4687;DHT22;2357;47.316;-1.348;2023-06-04T15:47:27;31.10;99.90
4687;DHT22;2357;47.316;-1.348;2023-06-04T15:49:53;30.70;99.90
4687;DHT22;2357;47.316;-1.348;2023-06-04T15:52:19;30.50;99.90